| time (UTC) | temp F | wind direction | speed knots | gust knots | rain 1hr in | rain 24hr in | rain mn in | humidity % | barometer mb |
| 20260505173118 | 67 | 238 | 0.9 | 2.6 | 0.00 | 0.00 | 0.00 | 96 | 1017.0 |
| 20260505172615 | 67 | 216 | 1.7 | 2.6 | 0.00 | 0.00 | 0.00 | 96 | 1017.0 |
| 20260505172118 | 67 | 211 | 1.7 | 2.6 | 0.00 | 0.00 | 0.00 | 96 | 1017.0 |
| 20260505171618 | 67 | 212 | 2.6 | 2.6 | 0.00 | 0.00 | 0.00 | 96 | 1017.0 |
| 20260505171117 | 68 | 271 | 1.7 | 2.6 | 0.00 | 0.00 | 0.00 | 96 | 1017.0 |
| 20260505170616 | 68 | 319 | 0.0 | 1.7 | 0.00 | 0.00 | 0.00 | 96 | 1017.0 |
| 20260505170117 | 68 | 157 | 0.0 | 1.7 | 0.00 | 0.00 | 0.00 | 96 | 1017.0 |
| 20260505165615 | 67 | 284 | 1.7 | 2.6 | 0.00 | 0.00 | 0.00 | 96 | 1017.0 |
| 20260505165116 | 67 | 180 | 1.7 | 1.7 | 0.00 | 0.00 | 0.00 | 96 | 1017.0 |
| 20260505164616 | 67 | 287 | 0.9 | 1.7 | 0.00 | 0.00 | 0.00 | 96 | 1017.0 |
| 20260505164118 | 67 | 258 | 1.7 | 2.6 | 0.00 | 0.00 | 0.00 | 96 | 1017.0 |
| 20260505163618 | 68 | 251 | 1.7 | 2.6 | 0.00 | 0.00 | 0.00 | 96 | 1017.0 |
| 20260505163116 | 68 | 155 | 0.0 | 2.6 | 0.00 | 0.00 | 0.00 | 95 | 1017.0 |
| 20260505162616 | 68 | 194 | 0.9 | 2.6 | 0.00 | 0.00 | 0.00 | 95 | 1017.0 |
| 20260505162117 | 68 | 197 | 1.7 | 2.6 | 0.00 | 0.00 | 0.00 | 95 | 1017.0 |
| 20260505161617 | 68 | 258 | 0.9 | 1.7 | 0.00 | 0.00 | 0.00 | 95 | 1017.0 |
| 20260505161116 | 68 | 337 | 0.9 | 1.7 | 0.00 | 0.00 | 0.00 | 95 | 1017.0 |
| 20260505160616 | 68 | 27 | 0.0 | 2.6 | 0.00 | 0.00 | 0.00 | 95 | 1017.0 |
| 20260505160118 | 68 | 164 | 0.9 | 1.7 | 0.00 | 0.00 | 0.00 | 95 | 1017.0 |
| 20260505153119 | 68 | 233 | 1.7 | 3.5 | 0.00 | 0.00 | 0.00 | 94 | 1018.0 |
| 20260505152616 | 68 | 297 | 1.7 | 4.3 | 0.00 | 0.00 | 0.00 | 94 | 1018.0 |
| 20260505152116 | 68 | 336 | 1.7 | 3.5 | 0.00 | 0.00 | 0.00 | 93 | 1018.0 |
| 20260505151616 | 69 | 181 | 2.6 | 5.2 | 0.00 | 0.00 | 0.00 | 93 | 1018.0 |
| 20260505151119 | 69 | 147 | 0.9 | 2.6 | 0.00 | 0.00 | 0.00 | 93 | 1018.0 |
| 20260505150618 | 69 | 173 | 1.7 | 3.5 | 0.00 | 0.00 | 0.00 | 92 | 1018.0 |
| 20260505150119 | 69 | 105 | 2.6 | 4.3 | 0.00 | 0.00 | 0.00 | 92 | 1017.0 |
| 20260505140616 | 68 | 234 | 1.7 | 1.7 | 0.00 | 0.00 | 0.00 | 91 | 1018.0 |
| 20260505140115 | 68 | 175 | 1.7 | 2.6 | 0.00 | 0.00 | 0.00 | 91 | 1018.0 |
| 20260505130118 | 69 | 75 | 1.7 | 2.6 | 0.00 | 0.00 | 0.00 | 89 | 1018.0 |
| 20260505124618 | 69 | 163 | 0.9 | 2.6 | 0.00 | 0.00 | 0.00 | 88 | 1018.0 |
| 20260505124117 | 69 | 174 | 2.6 | 3.5 | 0.00 | 0.00 | 0.00 | 88 | 1018.0 |
| 20260505123615 | 69 | 39 | 3.5 | 3.5 | 0.00 | 0.00 | 0.00 | 88 | 1017.0 |
| 20260505123115 | 70 | 112 | 0.0 | 1.7 | 0.00 | 0.00 | 0.00 | 87 | 1018.0 |
| 20260505122615 | 70 | 95 | 2.6 | 2.6 | 0.00 | 0.00 | 0.00 | 87 | 1018.0 |
| 20260505122117 | 70 | 107 | 1.7 | 1.7 | 0.00 | 0.00 | 0.00 | 87 | 1018.0 |
| 20260505121615 | 70 | 130 | 3.5 | 3.5 | 0.00 | 0.00 | 0.00 | 87 | 1018.0 |
| 20260505121115 | 70 | 101 | 2.6 | 2.6 | 0.00 | 0.00 | 0.00 | 87 | 1018.0 |
| 20260505120617 | 70 | 94 | 1.7 | 2.6 | 0.00 | 0.00 | 0.00 | 87 | 1018.0 |
| 20260505120116 | 70 | 124 | 2.6 | 2.6 | 0.00 | 0.00 | 0.00 | 87 | 1018.0 |
| 20260505115615 | 70 | 112 | 2.6 | 4.3 | 0.00 | 0.00 | 0.00 | 87 | 1018.0 |
| 20260505115116 | 70 | 101 | 2.6 | 4.3 | 0.00 | 0.00 | 0.00 | 88 | 1018.0 |
| 20260505114618 | 70 | 111 | 2.6 | 4.3 | 0.00 | 0.00 | 0.00 | 87 | 1018.0 |
| 20260505114117 | 70 | 119 | 1.7 | 2.6 | 0.00 | 0.00 | 0.00 | 86 | 1018.0 |
| 20260505113619 | 70 | 111 | 2.6 | 2.6 | 0.00 | 0.00 | 0.00 | 86 | 1018.0 |
| 20260505113117 | 70 | 98 | 1.7 | 2.6 | 0.00 | 0.00 | 0.00 | 86 | 1018.0 |
| 20260505112617 | 71 | 77 | 1.7 | 2.6 | 0.00 | 0.00 | 0.00 | 85 | 1018.0 |
| 20260505112115 | 71 | 63 | 1.7 | 2.6 | 0.00 | 0.00 | 0.00 | 85 | 1018.0 |
| 20260505111618 | 70 | 80 | 1.7 | 2.6 | 0.00 | 0.00 | 0.00 | 86 | 1018.0 |
| 20260505111115 | 70 | 87 | 2.6 | 2.6 | 0.00 | 0.00 | 0.00 | 85 | 1018.0 |
| 20260505110615 | 70 | 82 | 2.6 | 3.5 | 0.00 | 0.00 | 0.00 | 85 | 1018.0 |
| 20260505110115 | 70 | 71 | 2.6 | 3.5 | 0.00 | 0.00 | 0.00 | 86 | 1018.0 |
| 20260505102117 | 70 | 112 | 1.7 | 2.6 | 0.00 | 0.00 | 0.00 | 86 | 1018.0 |
| 20260505101618 | 70 | 116 | 0.9 | 1.7 | 0.00 | 0.00 | 0.00 | 86 | 1018.0 |
| 20260505101115 | 70 | 109 | 1.7 | 1.7 | 0.00 | 0.00 | 0.00 | 86 | 1018.0 |
| 20260505100617 | 71 | 114 | 0.9 | 2.6 | 0.00 | 0.00 | 0.00 | 86 | 1018.0 |
| 20260505100115 | 70 | 86 | 1.7 | 2.6 | 0.00 | 0.00 | 0.00 | 86 | 1017.0 |
| 20260505095618 | 71 | 99 | 1.7 | 1.7 | 0.00 | 0.00 | 0.00 | 85 | 1017.0 |
| 20260505095117 | 71 | 103 | 1.7 | 1.7 | 0.00 | 0.00 | 0.00 | 85 | 1017.0 |
| 20260505094619 | 71 | 91 | 1.7 | 2.6 | 0.00 | 0.00 | 0.00 | 85 | 1017.0 |
| 20260505094117 | 71 | 95 | 0.9 | 1.7 | 0.00 | 0.00 | 0.00 | 85 | 1017.0 |
| 20260505093615 | 71 | 48 | 1.7 | 2.6 | 0.00 | 0.00 | 0.00 | 85 | 1017.0 |
| 20260505093116 | 71 | 49 | 1.7 | 2.6 | 0.00 | 0.00 | 0.00 | 84 | 1018.0 |
| 20260505092617 | 71 | 68 | 2.6 | 2.6 | 0.00 | 0.00 | 0.00 | 85 | 1017.0 |
| 20260505092117 | 71 | 59 | 1.7 | 2.6 | 0.00 | 0.00 | 0.00 | 84 | 1017.0 |
| 20260505091617 | 71 | 78 | 1.7 | 2.6 | 0.00 | 0.00 | 0.00 | 84 | 1017.0 |
| 20260505091118 | 71 | 50 | 3.5 | 3.5 | 0.00 | 0.00 | 0.00 | 85 | 1018.0 |
| 20260505090616 | 71 | 64 | 1.7 | 3.5 | 0.00 | 0.00 | 0.00 | 85 | 1017.0 |
| 20260505090115 | 71 | 60 | 2.6 | 3.5 | 0.00 | 0.00 | 0.00 | 85 | 1017.0 |
| 20260505085617 | 71 | 61 | 2.6 | 3.5 | 0.00 | 0.00 | 0.00 | 85 | 1017.0 |
| 20260505085116 | 71 | 48 | 1.7 | 2.6 | 0.00 | 0.00 | 0.00 | 85 | 1017.0 |
| 20260505084617 | 71 | 50 | 1.7 | 2.6 | 0.00 | 0.00 | 0.00 | 85 | 1017.0 |
| 20260505083628 | 71 | 77 | 2.6 | 3.5 | 0.00 | 0.00 | 0.00 | 84 | 1017.0 |
| 20260505083117 | 72 | 52 | 2.6 | 3.5 | 0.00 | 0.00 | 0.00 | 84 | 1017.0 |
| 20260505082615 | 72 | 60 | 2.6 | 3.5 | 0.00 | 0.00 | 0.00 | 83 | 1017.0 |
| 20260505082115 | 72 | 60 | 2.6 | 3.5 | 0.00 | 0.00 | 0.00 | 83 | 1017.0 |
| 20260505081617 | 72 | 74 | 2.6 | 3.5 | 0.00 | 0.00 | 0.00 | 83 | 1016.0 |
| 20260505081117 | 72 | 35 | 1.7 | 1.7 | 0.00 | 0.00 | 0.00 | 83 | 1017.0 |
| 20260505080615 | 72 | 37 | 1.7 | 2.6 | 0.00 | 0.00 | 0.00 | 83 | 1016.0 |
| 20260505080117 | 72 | 68 | 2.6 | 4.3 | 0.00 | 0.00 | 0.00 | 82 | 1016.0 |
| 20260505075616 | 72 | 58 | 2.6 | 3.5 | 0.00 | 0.00 | 0.00 | 82 | 1016.0 |
| 20260505075120 | 72 | 50 | 2.6 | 4.3 | 0.00 | 0.00 | 0.00 | 82 | 1016.0 |
| 20260505074617 | 72 | 32 | 4.3 | 4.3 | 0.00 | 0.00 | 0.00 | 82 | 1016.0 |
| 20260505074115 | 72 | 8 | 0.9 | 3.5 | 0.00 | 0.00 | 0.00 | 81 | 1016.0 |
| 20260505073615 | 72 | 27 | 3.5 | 3.5 | 0.00 | 0.00 | 0.00 | 81 | 1016.0 |
| 20260505073117 | 73 | 53 | 2.6 | 3.5 | 0.00 | 0.00 | 0.00 | 81 | 1016.0 |
| 20260505072615 | 73 | 38 | 3.5 | 4.3 | 0.00 | 0.00 | 0.00 | 80 | 1016.0 |
| 20260505072116 | 73 | 39 | 2.6 | 5.2 | 0.00 | 0.00 | 0.00 | 80 | 1016.0 |
| 20260505071616 | 73 | 46 | 4.3 | 6.1 | 0.00 | 0.00 | 0.00 | 80 | 1016.0 |
| 20260505071115 | 73 | 31 | 4.3 | 5.2 | 0.00 | 0.00 | 0.00 | 80 | 1016.0 |
| 20260505070203 | 73 | 43 | 3.5 | 7.0 | 0.00 | 0.00 | 0.00 | 79 | 1016.0 |
| 20260505065615 | 73 | 357 | 2.6 | 6.1 | 0.00 | 0.00 | 0.00 | 78 | 1016.0 |
| 20260505065115 | 73 | 6 | 2.6 | 5.2 | 0.00 | 0.00 | 0.00 | 78 | 1016.0 |
| 20260505064616 | 74 | 40 | 4.3 | 5.2 | 0.00 | 0.00 | 0.00 | 77 | 1016.0 |
| 20260505064116 | 74 | 32 | 3.5 | 5.2 | 0.00 | 0.00 | 0.00 | 76 | 1016.0 |
| 20260505063617 | 74 | 49 | 2.6 | 6.1 | 0.00 | 0.00 | 0.00 | 75 | 1016.0 |
| 20260505063117 | 74 | 38 | 3.5 | 8.7 | 0.00 | 0.00 | 0.00 | 74 | 1016.0 |
| 20260505062615 | 74 | 35 | 6.1 | 8.7 | 0.00 | 0.00 | 0.00 | 74 | 1016.0 |
| 20260505062115 | 74 | 42 | 5.2 | 7.8 | 0.00 | 0.00 | 0.00 | 74 | 1016.0 |
| 20260505061615 | 74 | 39 | 5.2 | 7.8 | 0.00 | 0.00 | 0.00 | 73 | 1016.0 |
| 20260505061115 | 75 | 33 | 3.5 | 7.8 | 0.00 | 0.00 | 0.00 | 73 | 1016.0 |
| 20260505060615 | 75 | 64 | 6.1 | 8.7 | 0.00 | 0.00 | 0.00 | 72 | 1016.0 |
| 20260505060115 | 75 | 15 | 3.5 | 6.1 | 0.00 | 0.00 | 0.00 | 71 | 1016.0 |
| 20260505055617 | 75 | 23 | 3.5 | 6.1 | 0.00 | 0.00 | 0.00 | 71 | 1016.0 |
| 20260505055115 | 75 | 31 | 7.0 | 7.0 | 0.00 | 0.00 | 0.00 | 71 | 1016.0 |
| 20260505054615 | 75 | 31 | 6.1 | 7.8 | 0.00 | 0.00 | 0.00 | 71 | 1015.0 |
| 20260505054115 | 75 | 49 | 4.3 | 7.8 | 0.00 | 0.00 | 0.00 | 70 | 1015.0 |
| 20260505053615 | 76 | 62 | 6.1 | 8.7 | 0.00 | 0.00 | 0.00 | 69 | 1015.0 |
| 20260505053116 | 76 | 33 | 3.5 | 8.7 | 0.00 | 0.00 | 0.00 | 69 | 1015.0 |
| 20260505052615 | 76 | 38 | 4.3 | 9.6 | 0.00 | 0.00 | 0.00 | 68 | 1016.0 |
| 20260505052115 | 76 | 73 | 6.1 | 7.0 | 0.00 | 0.00 | 0.00 | 69 | 1016.0 |
| 20260505051616 | 76 | 21 | 4.3 | 9.6 | 0.00 | 0.00 | 0.00 | 68 | 1015.0 |
| 20260505051115 | 77 | 6 | 6.1 | 8.7 | 0.00 | 0.00 | 0.00 | 68 | 1016.0 |
| 20260505050615 | 77 | 19 | 2.6 | 9.6 | 0.00 | 0.00 | 0.00 | 68 | 1016.0 |
| 20260505050115 | 77 | 71 | 5.2 | 8.7 | 0.00 | 0.00 | 0.00 | 68 | 1016.0 |
| 20260505041617 | 80 | 86 | 1.7 | 4.3 | 0.00 | 0.00 | 0.00 | 60 | 1015.0 |
| 20260505041117 | 80 | 284 | 1.7 | 4.3 | 0.00 | 0.00 | 0.00 | 60 | 1015.0 |
| 20260505040617 | 80 | 10 | 1.7 | 2.6 | 0.00 | 0.00 | 0.00 | 60 | 1015.0 |
| 20260505040115 | 80 | 329 | 1.7 | 2.6 | 0.00 | 0.00 | 0.00 | 60 | 1015.0 |
| 20260505035615 | 80 | 332 | 1.7 | 4.3 | 0.00 | 0.00 | 0.00 | 60 | 1015.0 |
| 20260505035116 | 80 | 37 | 2.6 | 3.5 | 0.00 | 0.00 | 0.00 | 60 | 1015.0 |
| 20260505034617 | 80 | 0 | 2.6 | 5.2 | 0.00 | 0.00 | 0.00 | 60 | 1015.0 |
| 20260505034115 | 80 | 50 | 1.7 | 4.3 | 0.00 | 0.00 | 0.00 | 60 | 1015.0 |
| 20260505033615 | 80 | 78 | 2.6 | 4.3 | 0.00 | 0.00 | 0.00 | 59 | 1015.0 |
| 20260505033116 | 81 | 55 | 1.7 | 2.6 | 0.00 | 0.00 | 0.00 | 58 | 1015.0 |
| 20260505032616 | 81 | 351 | 0.9 | 1.7 | 0.00 | 0.00 | 0.00 | 59 | 1015.0 |
| 20260505032115 | 80 | 19 | 2.6 | 2.6 | 0.00 | 0.00 | 0.00 | 60 | 1015.0 |
| 20260505031616 | 80 | 205 | 1.7 | 2.6 | 0.00 | 0.00 | 0.00 | 60 | 1015.0 |
| 20260505031115 | 80 | 336 | 0.9 | 2.6 | 0.00 | 0.00 | 0.00 | 60 | 1015.0 |
| 20260505030615 | 80 | 260 | 0.9 | 4.3 | 0.00 | 0.00 | 0.00 | 60 | 1015.0 |
| 20260505030117 | 80 | 63 | 4.3 | 7.8 | 0.00 | 0.00 | 0.00 | 60 | 1015.0 |
| 20260505025617 | 81 | 147 | 1.7 | 2.6 | 0.00 | 0.00 | 0.00 | 59 | 1015.0 |
| 20260505025119 | 78 | 306 | 1.7 | 2.6 | 0.00 | 0.00 | 0.00 | 61 | 1015.0 |
| 20260505024619 | 78 | 65 | 3.5 | 5.2 | 0.00 | 0.00 | 0.00 | 61 | 1016.0 |
| 20260505024117 | 80 | 91 | 4.3 | 4.3 | 0.00 | 0.00 | 0.00 | 61 | 1016.0 |
| 20260505023616 | 80 | 57 | 2.6 | 3.5 | 0.00 | 0.00 | 0.00 | 60 | 1016.0 |
| 20260505023118 | 81 | 220 | 1.7 | 4.3 | 0.00 | 0.00 | 0.00 | 60 | 1016.0 |
| 20260505022621 | 80 | 321 | 0.0 | 2.6 | 0.00 | 0.00 | 0.00 | 62 | 1016.0 |
| 20260505022117 | 79 | 22 | 1.7 | 2.6 | 0.00 | 0.00 | 0.00 | 64 | 1016.0 |
| 20260505021624 | 79 | 238 | 1.7 | 2.6 | 0.00 | 0.00 | 0.00 | 63 | 1016.0 |
| 20260505021119 | 80 | 185 | 1.7 | 4.3 | 0.00 | 0.00 | 0.00 | 62 | 1016.0 |
| 20260505020620 | 78 | 122 | 0.0 | 1.7 | 0.00 | 0.00 | 0.00 | 64 | 1016.0 |
| 20260505020117 | 78 | 223 | 0.9 | 1.7 | 0.00 | 0.00 | 0.00 | 63 | 1016.0 |
| 20260505015616 | 78 | 235 | 0.9 | 3.5 | 0.00 | 0.00 | 0.00 | 65 | 1016.0 |
| 20260505015115 | 79 | 99 | 2.6 | 4.3 | 0.00 | 0.00 | 0.00 | 64 | 1016.0 |
| 20260505014616 | 78 | 144 | 0.9 | 2.6 | 0.00 | 0.00 | 0.00 | 65 | 1017.0 |
| 20260505014115 | 78 | 218 | 0.9 | 2.6 | 0.00 | 0.00 | 0.00 | 66 | 1016.0 |
| 20260505013615 | 79 | 182 | 3.5 | 3.5 | 0.00 | 0.00 | 0.00 | 63 | 1017.0 |
| 20260505013116 | 80 | 354 | 1.7 | 2.6 | 0.00 | 0.00 | 0.00 | 63 | 1017.0 |
| 20260505012615 | 79 | 232 | 3.5 | 4.3 | 0.00 | 0.00 | 0.00 | 63 | 1017.0 |
| 20260505012115 | 79 | 183 | 2.6 | 4.3 | 0.00 | 0.00 | 0.00 | 64 | 1017.0 |
| 20260505011616 | 78 | 16 | 2.6 | 2.6 | 0.00 | 0.00 | 0.00 | 66 | 1017.0 |
| 20260505011117 | 77 | 21 | 2.6 | 2.6 | 0.00 | 0.00 | 0.00 | 67 | 1017.0 |
| 20260505010615 | 76 | 316 | 1.7 | 2.6 | 0.00 | 0.00 | 0.00 | 69 | 1017.0 |
| 20260505010119 | 77 | 336 | 1.7 | 3.5 | 0.00 | 0.00 | 0.00 | 68 | 1018.0 |
| 20260505005619 | 77 | 288 | 2.6 | 3.5 | 0.00 | 0.00 | 0.00 | 67 | 1018.0 |
| 20260505005117 | 78 | 208 | 4.3 | 5.2 | 0.00 | 0.00 | 0.00 | 68 | 1018.0 |
| 20260505004615 | 75 | 115 | 0.0 | 4.3 | 0.00 | 0.00 | 0.00 | 72 | 1018.0 |
| 20260505004115 | 76 | 37 | 4.3 | 5.2 | 0.00 | 0.00 | 0.00 | 71 | 1018.0 |
| 20260505003615 | 76 | 76 | 2.6 | 2.6 | 0.00 | 0.00 | 0.00 | 72 | 1018.0 |
| 20260505003115 | 76 | 166 | 3.5 | 4.3 | 0.00 | 0.00 | 0.00 | 73 | 1018.0 |
| 20260505002615 | 76 | 146 | 1.7 | 2.6 | 0.00 | 0.00 | 0.00 | 74 | 1018.0 |
| 20260505002115 | 76 | 283 | 1.7 | 2.6 | 0.00 | 0.00 | 0.00 | 73 | 1018.0 |
| 20260505001615 | 76 | 184 | 5.2 | 5.2 | 0.00 | 0.00 | 0.00 | 73 | 1018.0 |
| 20260505001115 | 75 | 204 | 3.5 | 4.3 | 0.00 | 0.00 | 0.00 | 75 | 1018.0 |
| 20260505000616 | 75 | 316 | 0.9 | 4.3 | 0.00 | 0.00 | 0.00 | 75 | 1018.0 |
| 20260505000115 | 75 | 241 | 3.5 | 3.5 | 0.00 | 0.00 | 0.00 | 74 | 1018.0 |
| 20260504235615 | 74 | 189 | 1.7 | 4.3 | 0.00 | 0.00 | 0.00 | 76 | 1018.0 |
| 20260504235116 | 74 | 298 | 0.9 | 3.5 | 0.00 | 0.00 | 0.00 | 78 | 1018.0 |
| 20260504234615 | 73 | 261 | 0.0 | 3.5 | 0.00 | 0.00 | 0.00 | 80 | 1018.0 |
| 20260504234115 | 73 | 260 | 4.3 | 4.3 | 0.00 | 0.00 | 0.00 | 80 | 1018.0 |
| 20260504233616 | 73 | 225 | 3.5 | 4.3 | 0.00 | 0.00 | 0.00 | 81 | 1018.0 |
| 20260504233115 | 72 | 244 | 3.5 | 5.2 | 0.00 | 0.00 | 0.00 | 82 | 1019.0 |
| 20260504232616 | 72 | 186 | 0.9 | 5.2 | 0.00 | 0.00 | 0.00 | 82 | 1018.0 |
| 20260504232115 | 72 | 197 | 2.6 | 3.5 | 0.00 | 0.00 | 0.00 | 83 | 1018.0 |
| 20260504231615 | 71 | 303 | 0.0 | 5.2 | 0.00 | 0.00 | 0.00 | 84 | 1019.0 |
| 20260504231115 | 71 | 170 | 2.6 | 5.2 | 0.00 | 0.00 | 0.00 | 84 | 1019.0 |
| 20260504230615 | 71 | 130 | 0.9 | 4.3 | 0.00 | 0.00 | 0.00 | 86 | 1018.0 |
| 20260504230121 | 70 | 273 | 0.0 | 4.3 | 0.00 | 0.00 | 0.00 | 87 | 1018.0 |
| 20260504225615 | 70 | 218 | 1.7 | 4.3 | 0.00 | 0.00 | 0.00 | 88 | 1018.0 |
| 20260504225115 | 69 | 199 | 2.6 | 5.2 | 0.00 | 0.00 | 0.00 | 89 | 1018.0 |
| 20260504224617 | 69 | 189 | 3.5 | 6.1 | 0.00 | 0.00 | 0.00 | 90 | 1018.0 |
| 20260504224117 | 69 | 158 | 1.7 | 5.2 | 0.00 | 0.00 | 0.00 | 91 | 1018.0 |
| 20260504223615 | 69 | 174 | 3.5 | 5.2 | 0.00 | 0.00 | 0.00 | 91 | 1018.0 |
| 20260504223116 | 68 | 209 | 2.6 | 2.6 | 0.00 | 0.00 | 0.00 | 96 | 1018.0 |
| 20260504222615 | 68 | 153 | 2.6 | 4.3 | 0.00 | 0.00 | 0.00 | 97 | 1018.0 |
| 20260504222116 | 67 | 225 | 0.0 | 3.5 | 0.00 | 0.00 | 0.00 | 98 | 1018.0 |
| 20260504221616 | 67 | 159 | 2.6 | 2.6 | 0.00 | 0.00 | 0.00 | 98 | 1018.0 |
| 20260504221116 | 66 | 229 | 0.9 | 5.2 | 0.00 | 0.00 | 0.00 | 98 | 1018.0 |
| 20260504220615 | 66 | 148 | 4.3 | 4.3 | 0.00 | 0.00 | 0.00 | 98 | 1018.0 |
| 20260504220115 | 66 | 173 | 0.9 | 2.6 | 0.00 | 0.00 | 0.00 | 98 | 1018.0 |
| 20260504215615 | 66 | 253 | 2.6 | 3.5 | 0.00 | 0.00 | 0.00 | 98 | 1018.0 |
| 20260504215115 | 66 | 126 | 1.7 | 2.6 | 0.00 | 0.00 | 0.00 | 98 | 1018.0 |
| 20260504214615 | 65 | 175 | 0.9 | 2.6 | 0.00 | 0.00 | 0.00 | 98 | 1018.0 |
| 20260504214115 | 65 | 248 | 0.0 | 1.7 | 0.00 | 0.00 | 0.00 | 98 | 1018.0 |
| 20260504213615 | 65 | 166 | 0.0 | 2.6 | 0.00 | 0.00 | 0.00 | 98 | 1018.0 |
| 20260504213117 | 65 | 139 | 2.6 | 4.3 | 0.00 | 0.00 | 0.00 | 98 | 1018.0 |
| 20260504212616 | 65 | 103 | 1.7 | 2.6 | 0.00 | 0.00 | 0.00 | 98 | 1018.0 |
| 20260504212115 | 65 | 231 | 1.7 | 3.5 | 0.00 | 0.00 | 0.00 | 98 | 1018.0 |
| 20260504211618 | 65 | 161 | 2.6 | 3.5 | 0.00 | 0.00 | 0.00 | 98 | 1018.0 |
| 20260504211116 | 64 | 266 | 0.9 | 3.5 | 0.00 | 0.00 | 0.00 | 98 | 1018.0 |
| 20260504210616 | 64 | 188 | 0.9 | 2.6 | 0.00 | 0.00 | 0.00 | 98 | 1018.0 |
| 20260504210115 | 64 | 182 | 2.6 | 2.6 | 0.00 | 0.00 | 0.00 | 98 | 1018.0 |
| 20260504205615 | 64 | 145 | 3.5 | 4.3 | 0.00 | 0.00 | 0.00 | 98 | 1018.0 |
| 20260504205116 | 64 | 177 | 1.7 | 2.6 | 0.00 | 0.00 | 0.00 | 98 | 1018.0 |
| 20260504204615 | 64 | 219 | 0.9 | 2.6 | 0.00 | 0.00 | 0.00 | 98 | 1018.0 |
| 20260504204115 | 64 | 106 | 0.0 | 1.7 | 0.00 | 0.00 | 0.00 | 98 | 1018.0 |
| 20260504203618 | 64 | 134 | 0.9 | 3.5 | 0.00 | 0.00 | 0.00 | 98 | 1018.0 |
| 20260504203115 | 64 | 163 | 2.6 | 2.6 | 0.00 | 0.00 | 0.00 | 98 | 1018.0 |
| 20260504202617 | 64 | 99 | 0.9 | 2.6 | 0.00 | 0.00 | 0.00 | 98 | 1018.0 |
| 20260504202115 | 64 | 221 | 0.9 | 4.3 | 0.00 | 0.00 | 0.00 | 98 | 1018.0 |
| 20260504201617 | 64 | 178 | 1.7 | 3.5 | 0.00 | 0.00 | 0.00 | 98 | 1018.0 |
| 20260504201116 | 64 | 149 | 2.6 | 2.6 | 0.00 | 0.00 | 0.00 | 98 | 1017.0 |
| 20260504200616 | 64 | 167 | 2.6 | 4.3 | 0.00 | 0.00 | 0.00 | 98 | 1017.0 |
| 20260504200115 | 64 | 220 | 2.6 | 4.3 | 0.00 | 0.00 | 0.00 | 98 | 1017.0 |
| 20260504195616 | 64 | 193 | 1.7 | 2.6 | 0.00 | 0.00 | 0.00 | 98 | 1017.0 |
| 20260504195117 | 64 | 252 | 1.7 | 2.6 | 0.00 | 0.00 | 0.00 | 98 | 1017.0 |
| 20260504194617 | 64 | 213 | 1.7 | 2.6 | 0.00 | 0.00 | 0.00 | 98 | 1017.0 |
| 20260504194118 | 64 | 45 | 0.9 | 2.6 | 0.00 | 0.00 | 0.00 | 98 | 1017.0 |
| 20260504193616 | 64 | 167 | 2.6 | 3.5 | 0.00 | 0.00 | 0.00 | 97 | 1017.0 |
| 20260504193115 | 64 | 179 | 0.0 | 2.6 | 0.00 | 0.00 | 0.00 | 98 | 1017.0 |
| 20260504192616 | 63 | 143 | 1.7 | 2.6 | 0.00 | 0.00 | 0.00 | 98 | 1017.0 |
| 20260504191630 | 64 | 239 | 0.9 | 3.5 | 0.00 | 0.00 | 0.00 | 97 | 1017.0 |
| 20260504191115 | 64 | 161 | 0.0 | 2.6 | 0.00 | 0.00 | 0.00 | 97 | 1017.0 |
| 20260504190615 | 64 | 167 | 0.9 | 1.7 | 0.00 | 0.00 | 0.00 | 97 | 1017.0 |
| 20260504190115 | 64 | 140 | 1.7 | 2.6 | 0.00 | 0.00 | 0.00 | 97 | 1017.0 |
| 20260504185616 | 64 | 129 | 1.7 | 2.6 | 0.00 | 0.00 | 0.00 | 97 | 1017.0 |
| 20260504185121 | 64 | 220 | 0.0 | 1.7 | 0.00 | 0.00 | 0.00 | 97 | 1017.0 |
| 20260504184615 | 64 | 161 | 0.9 | 1.7 | 0.00 | 0.00 | 0.00 | 97 | 1017.0 |
| 20260504184115 | 64 | 123 | 1.7 | 2.6 | 0.00 | 0.00 | 0.00 | 97 | 1017.0 |
| 20260504183615 | 64 | 89 | 0.0 | 1.7 | 0.00 | 0.00 | 0.00 | 97 | 1017.0 |
| 20260504183115 | 64 | 140 | 0.9 | 1.7 | 0.00 | 0.00 | 0.00 | 97 | 1016.0 |
| 20260504182615 | 64 | 187 | 0.9 | 2.6 | 0.00 | 0.00 | 0.00 | 97 | 1017.0 |
| 20260504182115 | 64 | 237 | 1.7 | 1.7 | 0.00 | 0.00 | 0.00 | 97 | 1016.0 |
| 20260504181616 | 64 | 151 | 0.9 | 2.6 | 0.00 | 0.00 | 0.00 | 97 | 1017.0 |
| 20260504181116 | 64 | 206 | 0.0 | 1.7 | 0.00 | 0.00 | 0.00 | 97 | 1016.0 |
| 20260504180616 | 64 | 98 | 0.9 | 1.7 | 0.00 | 0.00 | 0.00 | 97 | 1016.0 |
| 20260504180115 | 64 | 211 | 0.9 | 2.6 | 0.00 | 0.00 | 0.00 | 97 | 1016.0 |
| 20260504175616 | 65 | 300 | 0.0 | 1.7 | 0.00 | 0.00 | 0.00 | 97 | 1016.0 |
| 20260504175116 | 65 | 262 | 0.9 | 1.7 | 0.00 | 0.00 | 0.00 | 97 | 1016.0 |
| 20260504174616 | 65 | 279 | 0.9 | 1.7 | 0.00 | 0.00 | 0.00 | 97 | 1016.0 |
| 20260504174118 | 65 | 180 | 1.7 | 1.7 | 0.00 | 0.00 | 0.00 | 97 | 1016.0 |
| 20260504173616 | 65 | 180 | 0.0 | 1.7 | 0.00 | 0.00 | 0.00 | 97 | 1017.0 |